Time;durP1;ratioP1;P1;durP2;ratioP2;P2;SDS_P1;SDS_P2;PMS_P1;PMS_P2;Temp;Humidity;BMP_temperature;BMP_pressure;BME280_temperature;BME280_humidity;BME280_pressure;Samples;Min_cycle;Max_cycle;Signal;HPM_P1;HPM_P2
2022/12/06 00:02:06;;;;;;;;;48.50;41.25;;;;;5.89;62.99;101633.91;6341526;22;45296;-46
2022/12/06 00:04:31;;;;;;;;;52.00;39.25;;;;;5.89;63.08;101633.03;6341695;22;46512;-48
2022/12/06 00:06:57;;;;;;;;;36.00;35.50;;;;;5.88;63.12;101626.94;6341337;22;45264;-46
2022/12/06 00:09:27;;;;;;;;;46.00;39.00;;;;;5.89;63.16;101628.69;6339986;22;45179;-48
2022/12/06 00:11:53;;;;;;;;;45.00;38.25;;;;;5.89;63.04;101635.63;6339549;22;45351;-47
2022/12/06 00:14:20;;;;;;;;;42.75;37.75;;;;;5.85;62.93;101619.94;6341715;22;45280;-48
2022/12/06 00:16:46;;;;;;;;;45.00;39.00;;;;;5.89;63.04;101625.19;6341455;22;45326;-48
2022/12/06 00:19:13;;;;;;;;;38.50;35.75;;;;;5.88;62.99;101610.41;6340015;22;45482;-47
2022/12/06 00:21:39;;;;;;;;;56.75;42.25;;;;;5.89;63.21;101612.16;6339419;22;45300;-48
2022/12/06 00:24:12;;;;;;;;;50.00;41.25;;;;;5.89;62.99;101609.53;6341767;22;45331;-47
2022/12/06 00:26:41;;;;;;;;;46.50;38.75;;;;;5.88;63.38;101608.66;6341714;22;45108;-47
2022/12/06 00:29:10;;;;;;;;;55.75;39.25;;;;;5.90;63.25;101601.75;6341702;22;45105;-48
2022/12/06 00:31:35;;;;;;;;;55.00;42.50;;;;;5.91;63.07;101592.19;6341228;22;45460;-48
2022/12/06 00:34:01;;;;;;;;;54.00;43.75;;;;;5.90;63.10;101590.44;6340876;22;46383;-46
2022/12/06 00:36:31;;;;;;;;;56.75;44.00;;;;;5.92;63.17;101591.34;6341510;22;45176;-48
2022/12/06 00:39:02;;;;;;;;;51.50;41.00;;;;;5.92;63.12;101596.56;6341641;22;45381;-45
2022/12/06 00:41:28;;;;;;;;;57.75;46.00;;;;;5.92;63.30;101592.22;6339309;22;45248;-48
2022/12/06 00:43:54;;;;;;;;;55.25;45.50;;;;;5.92;62.83;101592.22;6341425;22;46108;-49
2022/12/06 00:46:22;;;;;;;;;62.00;46.50;;;;;5.92;63.15;101594.81;6341203;22;45150;-50
2022/12/06 00:48:48;;;;;;;;;58.75;46.00;;;;;5.93;63.17;101598.34;6341548;22;45242;-49
2022/12/06 00:51:15;;;;;;;;;63.75;45.75;;;;;5.93;63.16;101593.13;6340799;22;45183;-46
2022/12/06 00:53:41;;;;;;;;;60.00;47.00;;;;;5.93;63.13;101593.97;6341105;22;47801;-46
2022/12/06 00:56:07;;;;;;;;;59.50;47.75;;;;;5.95;63.23;101591.41;6341358;22;45235;-48
2022/12/06 00:58:32;;;;;;;;;60.50;47.75;;;;;5.93;63.24;101580.06;6341384;22;45147;-47
2022/12/06 01:01:13;;;;;;;;;61.00;44.50;;;;;5.94;63.10;101581.84;6338645;22;45410;-51
2022/12/06 01:03:39;;;;;;;;;50.25;42.00;;;;;5.94;63.16;101582.69;6341194;22;45837;-47
2022/12/06 01:06:09;;;;;;;;;63.75;48.00;;;;;5.92;63.25;101580.91;6340051;22;45251;-46
2022/12/06 01:08:35;;;;;;;;;62.75;44.50;;;;;5.95;63.09;101587.06;6341118;22;45214;-49
2022/12/06 01:11:01;;;;;;;;;60.75;48.25;;;;;5.96;63.01;101585.31;6340745;22;45667;-47
2022/12/06 01:13:27;;;;;;;;;55.25;44.00;;;;;5.96;63.32;101587.94;6341254;22;46154;-47
2022/12/06 01:15:53;;;;;;;;;63.00;48.00;;;;;5.96;63.28;101586.22;6341180;22;45304;-47
2022/12/06 01:18:18;;;;;;;;;66.75;50.00;;;;;5.93;63.24;101586.16;6341321;22;45226;-47
2022/12/06 01:20:44;;;;;;;;;59.75;46.50;;;;;5.97;63.12;101585.34;6341405;22;45284;-48
2022/12/06 01:23:09;;;;;;;;;58.00;48.00;;;;;5.97;63.06;101580.13;6341420;22;45233;-48
2022/12/06 01:25:34;;;;;;;;;52.25;40.25;;;;;5.98;63.38;101586.25;6341736;22;45219;-50
2022/12/06 01:28:00;;;;;;;;;60.25;47.50;;;;;5.96;63.18;101581.00;6341410;22;45437;-47
2022/12/06 01:30:25;;;;;;;;;49.25;41.00;;;;;5.98;63.13;101581.94;6340362;22;45312;-48
2022/12/06 01:32:50;;;;;;;;;57.25;43.50;;;;;5.98;63.10;101583.63;6341260;22;46107;-48
2022/12/06 01:35:16;;;;;;;;;58.00;44.25;;;;;5.96;63.12;101582.72;6341005;22;45333;-51
2022/12/06 01:37:41;;;;;;;;;60.75;43.25;;;;;5.99;63.34;101582.81;6339382;22;45369;-49
2022/12/06 01:40:08;;;;;;;;;50.75;41.75;;;;;5.98;63.21;101583.63;6340217;22;45370;-49
2022/12/06 01:42:33;;;;;;;;;52.75;40.75;;;;;5.99;63.05;101580.22;6339405;22;48234;-46
2022/12/06 01:44:59;;;;;;;;;53.25;39.50;;;;;5.99;63.21;101582.81;6341294;22;45203;-49
2022/12/06 01:47:32;;;;;;;;;55.00;41.50;;;;;5.99;63.12;101580.22;6341200;22;45266;-50
2022/12/06 01:50:01;;;;;;;;;49.75;42.75;;;;;5.99;63.38;101580.22;6340726;22;45158;-49
2022/12/06 01:52:35;;;;;;;;;50.50;41.00;;;;;6.00;63.22;101581.97;6340672;22;46246;-49
2022/12/06 01:55:03;;;;;;;;;51.25;38.00;;;;;6.01;63.27;101591.53;6341117;22;45167;-46
2022/12/06 01:57:29;;;;;;;;;47.25;40.00;;;;;6.01;63.10;101592.44;6341127;22;45261;-50
2022/12/06 01:59:54;;;;;;;;;54.50;40.75;;;;;6.01;63.09;101587.22;6340938;22;45540;-51
2022/12/06 02:02:20;;;;;;;;;49.00;39.75;;;;;5.99;63.30;101572.38;6340840;22;45272;-49
2022/12/06 02:04:47;;;;;;;;;50.25;39.25;;;;;6.03;63.31;101581.16;6340697;22;45244;-50
2022/12/06 02:07:12;;;;;;;;;42.00;38.00;;;;;6.01;63.25;101581.09;6339021;22;45210;-47
2022/12/06 02:09:38;;;;;;;;;46.25;37.50;;;;;6.04;63.23;101581.19;6340788;22;45429;-49
2022/12/06 02:12:11;;;;;;;;;47.00;36.75;;;;;6.05;63.33;101580.34;6338328;22;46134;-47
2022/12/06 02:14:36;;;;;;;;;48.00;38.00;;;;;6.06;63.17;101584.66;6340972;22;45330;-47
2022/12/06 02:17:26;;;;;;;;;46.00;37.00;;;;;6.07;63.47;101590.78;6341512;22;45180;-46
2022/12/06 02:19:55;;;;;;;;;47.00;38.00;;;;;6.06;63.31;101586.41;6339905;22;45338;-49
2022/12/06 02:22:29;;;;;;;;;47.00;37.00;;;;;6.07;63.41;101589.03;6342205;22;45328;-46
2022/12/06 02:25:09;;;;;;;;;45.00;34.50;;;;;6.08;63.22;101588.19;6342521;22;45396;-47
2022/12/06 02:27:44;;;;;;;;;42.00;34.50;;;;;6.09;63.23;101599.50;6342733;22;45160;-48
2022/12/06 02:30:40;;;;;;;;;47.75;36.25;;;;;6.10;63.31;101596.06;6341664;22;45163;-50
2022/12/06 02:33:14;;;;;;;;;43.50;36.00;;;;;6.11;63.35;101595.19;6342101;22;45166;-47
2022/12/06 02:35:47;;;;;;;;;49.00;39.00;;;;;6.13;63.32;101596.13;6342089;22;45145;-47
2022/12/06 02:38:21;;;;;;;;;45.50;35.75;;;;;6.13;63.41;101596.13;6341986;22;45090;-50
2022/12/06 02:40:53;;;;;;;;;52.75;42.00;;;;;6.14;63.45;101592.66;6341968;22;45338;-50
2022/12/06 02:43:24;;;;;;;;;45.25;39.00;;;;;6.14;63.32;101590.06;6342020;22;45274;-49
2022/12/06 02:45:55;;;;;;;;;34.25;33.50;;;;;6.15;63.38;101590.06;6341292;22;45167;-47
2022/12/06 02:48:24;;;;;;;;;54.50;40.50;;;;;6.13;63.40;101583.06;6342544;22;45317;-48
2022/12/06 02:50:55;;;;;;;;;45.75;36.50;;;;;6.15;63.45;101586.56;6340949;22;45230;-47
2022/12/06 02:53:25;;;;;;;;;42.00;36.25;;;;;6.15;63.39;101589.19;6342339;22;45343;-46
2022/12/06 02:55:51;;;;;;;;;42.25;36.00;;;;;6.11;63.30;101582.16;6341595;22;45239;-47
2022/12/06 02:58:16;;;;;;;;;40.25;33.00;;;;;6.14;63.49;101587.44;6341687;22;45139;-47
2022/12/06 03:00:49;;;;;;;;;48.50;36.75;;;;;6.14;63.42;101582.22;6341781;22;45511;-45
2022/12/06 03:03:17;;;;;;;;;44.75;38.50;;;;;6.13;63.48;101583.94;6341489;22;46092;-46
2022/12/06 03:05:58;;;;;;;;;42.25;35.25;;;;;6.13;63.32;101586.53;6340096;22;44768;-46
2022/12/06 03:08:47;;;;;;;;;39.75;34.25;;;;;6.11;63.28;101585.66;6342261;22;45432;-46
2022/12/06 03:11:13;;;;;;;;;35.25;33.00;;;;;6.11;63.43;101588.28;6341437;22;45500;-47
2022/12/06 03:13:53;;;;;;;;;31.00;23.75;;;;;6.12;63.42;101590.00;6342110;22;45291;-46
2022/12/06 03:16:42;;;;;;;;;35.50;23.50;;;;;6.12;63.30;101582.16;6340990;22;45209;-47
2022/12/06 03:19:17;;;;;;;;;36.25;31.25;;;;;6.11;63.41;101583.06;6341577;22;45269;-50
2022/12/06 03:22:05;;;;;;;;;42.25;32.25;;;;;6.11;63.40;101587.38;6341590;22;45265;-48
2022/12/06 03:24:34;;;;;;;;;45.00;37.50;;;;;6.08;63.40;101579.50;6341917;22;46118;-48
2022/12/06 03:27:04;;;;;;;;;40.50;32.50;;;;;6.11;63.40;101592.59;6341486;22;45192;-46
2022/12/06 03:29:32;;;;;;;;;43.50;36.50;;;;;6.08;63.36;101588.19;6341940;22;45241;-50
2022/12/06 03:32:04;;;;;;;;;41.00;34.25;;;;;6.11;63.52;101592.59;6341580;22;45169;-47
2022/12/06 03:34:34;;;;;;;;;40.50;34.00;;;;;6.12;63.33;101594.34;6341680;22;46287;-50
2022/12/06 03:37:03;;;;;;;;;40.00;31.25;;;;;6.06;63.38;101582.06;6342177;22;45211;-50
2022/12/06 03:39:57;;;;;;;;;40.00;36.75;;;;;6.11;63.51;101593.50;6342203;22;45249;-48
2022/12/06 03:42:22;;;;;;;;;37.75;34.25;;;;;6.11;63.54;101598.72;6341285;22;45226;-50
2022/12/06 03:44:48;;;;;;;;;40.25;37.00;;;;;6.11;63.35;101592.59;6341712;22;45440;-48
2022/12/06 03:47:19;;;;;;;;;42.00;31.50;;;;;6.10;63.40;101591.72;6341548;22;45269;-50
2022/12/06 03:49:55;;;;;;;;;37.00;31.25;;;;;6.10;63.51;101586.50;6341697;22;45357;-48
2022/12/06 03:52:23;;;;;;;;;30.25;26.50;;;;;6.12;63.46;101594.34;6341587;22;45424;-51
2022/12/06 03:54:48;;;;;;;;;38.25;34.25;;;;;6.14;63.53;101587.44;6341206;22;46086;-50
2022/12/06 03:57:13;;;;;;;;;35.25;30.25;;;;;6.12;63.34;101587.41;6341558;22;45224;-51
2022/12/06 03:59:39;;;;;;;;;36.00;33.00;;;;;6.14;63.58;101577.88;6341827;22;45132;-57
2022/12/06 04:02:04;;;;;;;;;41.50;34.25;;;;;6.15;63.60;101584.84;6341576;22;45231;-54
2022/12/06 04:04:30;;;;;;;;;34.00;31.00;;;;;6.15;63.42;101583.97;6341699;22;45309;-46
2022/12/06 04:06:55;;;;;;;;;40.75;35.25;;;;;6.15;63.40;101584.84;6341530;22;45243;-47
2022/12/06 04:12:59;;;;;;;;;39.50;35.25;;;;;6.15;63.53;101589.19;6341392;22;45312;-48
2022/12/06 04:14:52;;;;;;;;;44.25;35.75;;;;;6.15;63.65;101591.78;6340217;22;45122;-46
2022/12/06 04:20:02;;;;;;;;;51.50;38.00;;;;;6.15;63.49;101591.78;6341490;22;45234;-47
2022/12/06 04:25:11;;;;;;;;;46.75;39.25;;;;;6.11;63.65;101582.16;6341511;22;45215;-48
2022/12/06 04:38:39;;;;;;;;;37.50;30.25;;;;;6.13;63.79;101586.53;6341539;22;45475;-46
2022/12/06 04:41:05;;;;;;;;;42.25;34.75;;;;;6.11;63.58;101583.06;6341705;22;45200;-46
2022/12/06 04:43:42;;;;;;;;;33.00;32.25;;;;;6.12;63.47;101576.94;6341751;22;45180;-46
2022/12/06 04:46:13;;;;;;;;;34.50;34.25;;;;;6.14;63.61;101585.69;6339234;22;45338;-47
2022/12/06 04:48:39;;;;;;;;;39.75;29.00;;;;;6.13;63.61;101578.72;6341763;22;45143;-45
2022/12/06 04:51:05;;;;;;;;;38.50;33.75;;;;;6.14;63.48;101588.31;6339086;22;45214;-48
2022/12/06 04:53:30;;;;;;;;;27.25;24.50;;;;;6.13;63.56;101573.50;6341743;22;45475;-47
2022/12/06 04:55:56;;;;;;;;;39.75;32.25;;;;;6.13;63.61;101577.84;6340878;22;46011;-47
2022/12/06 04:58:22;;;;;;;;;35.00;30.75;;;;;6.12;63.54;101584.78;6341642;22;45184;-47
2022/12/06 05:00:53;;;;;;;;;45.50;33.25;;;;;6.11;63.58;101570.00;6341190;22;45416;-47
2022/12/06 05:03:18;;;;;;;;;33.00;29.25;;;;;6.12;63.89;101569.13;6339568;22;44764;-46
2022/12/06 05:05:44;;;;;;;;;35.50;30.50;;;;;6.11;63.52;101566.50;6341465;22;45261;-47
2022/12/06 05:08:10;;;;;;;;;32.25;27.50;;;;;6.13;63.43;101565.66;6339672;22;45184;-48
2022/12/06 05:10:36;;;;;;;;;29.75;26.25;;;;;6.13;63.67;101570.88;6341701;22;45156;-46
2022/12/06 05:13:01;;;;;;;;;35.25;27.00;;;;;6.13;63.63;101557.84;6341348;22;45506;-47
2022/12/06 05:15:28;;;;;;;;;40.50;33.50;;;;;6.11;63.45;101559.56;6341019;22;45928;-46
2022/12/06 05:17:54;;;;;;;;;38.75;32.25;;;;;6.12;63.81;101563.91;6341125;22;45269;-47
2022/12/06 05:20:19;;;;;;;;;29.75;21.00;;;;;6.12;63.79;101556.06;6341386;22;45527;-49
2022/12/06 05:22:44;;;;;;;;;39.50;27.75;;;;;6.12;63.61;101556.06;6339833;22;45322;-46
2022/12/06 05:25:10;;;;;;;;;41.50;35.00;;;;;6.14;63.73;101557.00;6339100;22;47056;-50
2022/12/06 05:27:35;;;;;;;;;36.50;27.75;;;;;6.13;63.72;101557.84;6340722;22;45219;-47
2022/12/06 05:30:01;;;;;;;;;44.00;36.25;;;;;6.09;63.80;101552.53;6340867;22;45228;-48
2022/12/06 05:32:26;;;;;;;;;33.50;30.00;;;;;6.13;63.81;101554.38;6341308;22;45272;-47
2022/12/06 05:34:51;;;;;;;;;40.75;33.75;;;;;6.11;63.81;101551.72;6341110;22;45290;-48
2022/12/06 05:37:17;;;;;;;;;34.25;27.00;;;;;6.11;63.74;101549.13;6341170;22;45229;-49
2022/12/06 05:39:42;;;;;;;;;45.50;35.75;;;;;6.13;63.61;101559.59;6340738;22;45223;-47
2022/12/06 05:42:08;;;;;;;;;44.00;36.00;;;;;6.13;63.82;101556.97;6312782;22;45622;-45
2022/12/06 05:44:33;;;;;;;;;32.50;26.00;;;;;6.10;63.74;101549.97;6340687;22;45106;-45
2022/12/06 05:46:59;;;;;;;;;39.50;35.75;;;;;6.12;63.69;101550.00;6338842;22;45262;-47
2022/12/06 05:49:25;;;;;;;;;36.50;31.50;;;;;6.10;63.75;101547.34;6341471;22;45149;-46
2022/12/06 05:51:50;;;;;;;;;39.75;32.50;;;;;6.12;63.89;101550.84;6339700;22;45191;-45
2022/12/06 05:54:15;;;;;;;;;42.25;33.75;;;;;6.12;63.84;101548.25;6342440;22;46118;-45
2022/12/06 05:56:41;;;;;;;;;47.25;37.25;;;;;6.09;63.71;101553.44;6342496;22;45220;-45
2022/12/06 05:59:06;;;;;;;;;39.50;34.25;;;;;6.13;63.83;101556.97;6340832;22;45077;-47
2022/12/06 06:01:32;;;;;;;;;41.75;35.25;;;;;6.12;63.72;101556.06;6339983;22;45104;-46
2022/12/06 06:03:57;;;;;;;;;44.00;29.50;;;;;6.12;63.75;101556.06;6342464;22;45202;-51
2022/12/06 06:06:22;;;;;;;;;39.00;31.50;;;;;6.13;63.73;101560.44;6341967;22;45287;-45
2022/12/06 06:08:48;;;;;;;;;43.75;33.75;;;;;6.13;63.87;101552.63;6342719;22;45281;-46
2022/12/06 06:11:14;;;;;;;;;33.50;31.50;;;;;6.13;63.82;101551.75;6342134;22;45320;-48
2022/12/06 06:13:39;;;;;;;;;34.00;29.75;;;;;6.13;63.83;101549.13;6341884;22;46173;-46
2022/12/06 06:16:05;;;;;;;;;48.50;37.25;;;;;6.13;63.75;101557.84;6341875;22;45336;-47
2022/12/06 06:18:31;;;;;;;;;40.25;36.75;;;;;6.10;63.98;101541.25;6342482;22;45266;-46
2022/12/06 06:20:58;;;;;;;;;51.25;36.75;;;;;6.14;63.75;101550.91;6340032;22;45130;-51
2022/12/06 06:23:25;;;;;;;;;39.00;33.25;;;;;6.13;63.89;101552.63;6341962;22;46280;-49
2022/12/06 06:25:50;;;;;;;;;39.00;34.50;;;;;6.14;63.99;101551.78;6342005;22;45143;-47
2022/12/06 06:28:16;;;;;;;;;44.25;36.25;;;;;6.16;63.80;101554.41;6341091;22;45180;-47
2022/12/06 06:30:42;;;;;;;;;39.00;36.25;;;;;6.16;63.81;101559.63;6341508;22;45203;-46
2022/12/06 06:33:08;;;;;;;;;38.50;34.25;;;;;6.15;63.95;101563.97;6342586;22;45199;-48
2022/12/06 06:35:35;;;;;;;;;47.50;40.00;;;;;6.16;63.65;101551.78;6340315;22;45261;-48
2022/12/06 06:38:00;;;;;;;;;45.75;35.75;;;;;6.17;63.76;101564.00;6342539;22;45195;-47
2022/12/06 06:40:27;;;;;;;;;44.25;36.00;;;;;6.15;63.85;101550.03;6341999;22;45183;-46
2022/12/06 06:42:52;;;;;;;;;42.25;36.25;;;;;6.18;63.81;101552.72;6341260;22;46262;-47
2022/12/06 06:45:18;;;;;;;;;41.75;36.00;;;;;6.18;63.70;101564.00;6342074;22;45223;-47
2022/12/06 06:47:43;;;;;;;;;45.50;35.75;;;;;6.19;63.96;101559.69;6340019;22;45276;-47
2022/12/06 06:50:09;;;;;;;;;41.75;36.25;;;;;6.18;64.11;101564.00;6339377;22;45488;-46
2022/12/06 06:52:34;;;;;;;;;45.25;36.50;;;;;6.20;64.09;101571.00;6342209;22;45163;-47
2022/12/06 06:55:00;;;;;;;;;47.25;37.25;;;;;6.17;64.03;101564.84;6341760;22;45215;-46
2022/12/06 06:57:25;;;;;;;;;46.00;35.25;;;;;6.21;63.89;101568.41;6341941;22;45283;-51
2022/12/06 06:59:51;;;;;;;;;42.50;33.00;;;;;6.20;63.90;101571.91;6341461;22;45140;-48
2022/12/06 07:02:16;;;;;;;;;47.75;36.50;;;;;6.14;63.93;101558.75;6339706;22;47358;-47
2022/12/06 07:04:42;;;;;;;;;45.75;36.25;;;;;6.21;63.96;101572.75;6341960;22;45123;-46
2022/12/06 07:07:08;;;;;;;;;42.75;35.50;;;;;6.21;64.05;101571.00;6340392;22;45309;-49
2022/12/06 07:09:33;;;;;;;;;44.50;36.50;;;;;6.21;63.95;101562.31;6339675;22;45381;-50
2022/12/06 07:11:59;;;;;;;;;49.50;37.75;;;;;6.20;63.97;101563.16;6339685;22;45957;-48
2022/12/06 07:14:24;;;;;;;;;45.50;39.00;;;;;6.24;63.99;101570.19;6342052;22;45176;-48
2022/12/06 07:16:49;;;;;;;;;42.75;35.00;;;;;6.22;63.96;101567.56;6341713;22;45241;-50
2022/12/06 07:19:15;;;;;;;;;53.75;39.50;;;;;6.23;64.14;101571.06;6341996;22;45286;-50
2022/12/06 07:21:40;;;;;;;;;41.75;37.25;;;;;6.25;64.07;101569.34;6341522;22;46201;-52
2022/12/06 07:24:06;;;;;;;;;47.50;40.00;;;;;6.25;64.11;101559.78;6341841;22;45386;-52
2022/12/06 07:26:31;;;;;;;;;47.50;37.00;;;;;6.23;64.03;101563.25;6341398;22;45293;-51
2022/12/06 07:28:58;;;;;;;;;38.25;30.50;;;;;6.22;64.21;101567.56;6342041;22;45358;-51
2022/12/06 07:31:26;;;;;;;;;43.25;37.50;;;;;6.22;64.12;101566.69;6340867;22;45230;-49
2022/12/06 07:33:53;;;;;;;;;55.25;43.00;;;;;6.20;64.29;101560.56;6341214;22;45148;-50
2022/12/06 07:36:19;;;;;;;;;50.75;35.75;;;;;6.23;64.24;101577.16;6341848;22;45313;-48
2022/12/06 07:38:49;;;;;;;;;42.75;36.00;;;;;6.23;64.33;101571.94;6341442;22;45228;-47
2022/12/06 07:46:55;;;;;;;;;43.50;36.25;;;;;6.27;64.36;101567.66;6341433;22;45362;-48
2022/12/06 07:49:21;;;;;;;;;40.75;35.75;;;;;6.27;64.30;101565.91;6341588;22;45167;-49
2022/12/06 07:51:47;;;;;;;;;49.75;39.25;;;;;6.26;64.27;101566.75;6340609;22;47037;-51
2022/12/06 07:54:13;;;;;;;;;43.00;32.25;;;;;6.31;64.48;101579.88;6341830;22;45299;-50
2022/12/06 07:56:39;;;;;;;;;46.00;38.25;;;;;6.30;64.15;101570.28;6339709;22;45249;-48
2022/12/06 07:59:05;;;;;;;;;47.25;38.00;;;;;6.33;64.06;101575.59;6341476;22;45414;-47
2022/12/06 08:01:30;;;;;;;;;40.50;37.75;;;;;6.33;64.24;101571.22;6340936;22;46170;-48
2022/12/06 08:03:59;;;;;;;;;45.25;37.50;;;;;6.35;64.05;101568.63;6341465;22;45243;-51
2022/12/06 08:06:24;;;;;;;;;49.00;39.00;;;;;6.36;64.32;101572.13;6341749;22;45165;-50
2022/12/06 08:08:49;;;;;;;;;53.25;40.00;;;;;6.39;64.34;101577.41;6341845;22;45093;-48
2022/12/06 08:11:15;;;;;;;;;51.25;38.75;;;;;6.37;64.09;101572.16;6340933;22;46004;-49
2022/12/06 08:13:40;;;;;;;;;55.00;41.50;;;;;6.41;64.23;101576.56;6340997;22;45287;-47
2022/12/06 08:16:08;;;;;;;;;58.50;42.50;;;;;6.42;64.15;101580.94;6341468;22;45164;-50
2022/12/06 08:18:33;;;;;;;;;45.75;35.25;;;;;6.42;64.35;101583.56;6341604;22;45349;-49
2022/12/06 08:20:59;;;;;;;;;39.75;34.50;;;;;6.43;64.23;101585.31;6340539;22;46010;-49
2022/12/06 08:23:25;;;;;;;;;52.75;44.75;;;;;6.41;64.26;101583.53;6341507;22;45192;-49
2022/12/06 08:26:04;;;;;;;;;45.50;37.25;;;;;6.47;64.35;101594.94;6341581;22;45228;-50
2022/12/06 08:28:32;;;;;;;;;44.75;38.00;;;;;6.48;64.48;101599.31;6341927;22;45143;-50
2022/12/06 08:30:57;;;;;;;;;50.00;40.75;;;;;6.50;64.19;101601.97;6340415;22;45499;-49
2022/12/06 08:33:23;;;;;;;;;51.00;36.75;;;;;6.51;64.33;101606.31;6341809;22;45199;-48
2022/12/06 08:35:50;;;;;;;;;48.00;38.25;;;;;6.53;64.41;101611.56;6341628;22;45342;-47
2022/12/06 08:38:17;;;;;;;;;44.00;36.25;;;;;6.53;64.49;101609.84;6341594;22;45274;-49
2022/12/06 08:40:42;;;;;;;;;40.25;30.25;;;;;6.55;64.37;101609.88;6341312;22;45947;-50
2022/12/06 08:43:08;;;;;;;;;45.75;39.25;;;;;6.53;64.23;101601.13;6341266;22;45203;-49
2022/12/06 08:45:33;;;;;;;;;54.75;42.25;;;;;6.58;64.39;101609.91;6341442;22;45123;-49
2022/12/06 08:47:59;;;;;;;;;50.75;38.00;;;;;6.58;64.46;101610.81;6341494;22;45258;-51
2022/12/06 08:50:24;;;;;;;;;37.75;35.25;;;;;6.57;64.38;101616.00;6340905;22;45208;-48
2022/12/06 08:52:50;;;;;;;;;49.50;39.25;;;;;6.60;64.50;101619.56;6341534;22;45096;-50
2022/12/06 08:55:15;;;;;;;;;46.50;38.00;;;;;6.60;64.54;101616.94;6341954;22;45212;-50
2022/12/06 08:57:40;;;;;;;;;44.25;37.75;;;;;6.62;64.33;101625.66;6341358;22;45496;-47
2022/12/06 09:00:07;;;;;;;;;53.00;42.00;;;;;6.64;64.30;101623.97;6340752;22;46211;-51
2022/12/06 09:02:32;;;;;;;;;51.75;38.25;;;;;6.66;64.53;101629.22;6341406;22;45166;-48
2022/12/06 09:04:57;;;;;;;;;53.50;40.75;;;;;6.69;64.32;101631.84;6341548;22;45360;-47
2022/12/06 09:07:25;;;;;;;;;40.50;35.50;;;;;6.68;64.69;101632.75;6341439;22;45234;-48
2022/12/06 09:09:52;;;;;;;;;51.75;38.25;;;;;6.69;64.43;101629.25;6340897;22;46906;-48
2022/12/06 09:12:17;;;;;;;;;46.50;38.75;;;;;6.70;64.49;101630.16;6341025;22;45267;-49
2022/12/06 09:14:43;;;;;;;;;53.25;41.75;;;;;6.71;64.57;101627.53;6341406;22;45132;-49
2022/12/06 09:17:08;;;;;;;;;58.00;42.25;;;;;6.73;64.47;101627.56;6341243;22;45151;-49
2022/12/06 09:19:33;;;;;;;;;51.00;40.50;;;;;6.75;64.50;101637.19;6341404;22;45294;-50
2022/12/06 09:21:59;;;;;;;;;57.75;41.00;;;;;6.76;64.75;101641.56;6341449;22;45239;-51
2022/12/06 09:24:24;;;;;;;;;51.50;38.25;;;;;6.78;64.28;101639.88;6341557;22;45230;-49
2022/12/06 09:26:49;;;;;;;;;51.50;38.75;;;;;6.81;64.62;101644.25;6340385;22;45543;-48
2022/12/06 09:29:16;;;;;;;;;55.50;37.50;;;;;6.83;64.53;101642.56;6341440;22;45210;-52
2022/12/06 09:31:41;;;;;;;;;51.75;40.25;;;;;6.85;64.54;101642.56;6340621;22;45307;-51
2022/12/06 09:34:07;;;;;;;;;49.00;37.50;;;;;6.85;64.41;101634.72;6341490;22;45151;-52
2022/12/06 09:36:36;;;;;;;;;49.75;39.50;;;;;6.86;64.60;101642.59;6341079;22;45422;-52
2022/12/06 09:39:11;;;;;;;;;53.75;40.75;;;;;6.89;64.56;101639.13;6339065;22;46958;-50
2022/12/06 09:41:58;;;;;;;;;54.50;41.75;;;;;6.90;64.43;101651.34;6340544;22;45273;-48
2022/12/06 09:44:33;;;;;;;;;45.00;35.50;;;;;6.89;64.51;101650.47;6341426;22;45171;-49
2022/12/06 09:47:14;;;;;;;;;50.50;38.25;;;;;6.90;64.66;101644.38;6341270;22;45215;-57
2022/12/06 09:49:46;;;;;;;;;51.50;39.50;;;;;6.91;64.59;101643.53;6340514;22;45408;-51
2022/12/06 09:52:41;;;;;;;;;53.25;44.25;;;;;6.94;64.52;101637.47;6341248;22;45146;-49
2022/12/06 09:55:12;;;;;;;;;52.00;40.25;;;;;6.96;64.50;101648.84;6312692;22;45219;-49
2022/12/06 09:58:07;;;;;;;;;58.25;42.25;;;;;6.96;64.76;101631.41;6340852;22;45166;-46
2022/12/06 10:00:43;;;;;;;;;56.75;41.50;;;;;6.98;64.67;101636.66;6340229;22;46155;-48
2022/12/06 10:03:21;;;;;;;;;52.50;42.25;;;;;6.91;64.79;101627.00;6340566;22;45175;-50
2022/12/06 10:06:02;;;;;;;;;53.75;41.75;;;;;7.01;64.66;101652.41;6341350;22;45234;-48
2022/12/06 10:08:49;;;;;;;;;53.25;40.25;;;;;7.02;64.76;101648.94;6340759;22;45272;-49
2022/12/06 10:11:42;;;;;;;;;53.50;40.00;;;;;7.02;64.57;101640.19;6340523;22;46277;-48
2022/12/06 10:14:41;;;;;;;;;53.50;41.50;;;;;7.03;65.04;101645.47;6340991;22;45233;-47
2022/12/06 10:17:27;;;;;;;;;64.75;51.50;;;;;7.02;64.78;101632.34;6340780;22;45147;-47
2022/12/06 10:19:55;;;;;;;;;57.25;45.50;;;;;7.05;64.93;101648.09;6340590;22;45303;-49
2022/12/06 10:22:29;;;;;;;;;56.25;44.75;;;;;7.06;64.63;101648.13;6340530;22;45223;-49
2022/12/06 10:25:10;;;;;;;;;55.50;44.50;;;;;7.07;64.58;101646.38;6338865;22;45744;-47
2022/12/06 10:27:38;;;;;;;;;53.50;41.75;;;;;7.07;64.79;101641.13;6340867;22;45267;-49
2022/12/06 10:30:10;;;;;;;;;58.00;45.00;;;;;7.08;64.97;101640.28;6339784;22;45341;-47
2022/12/06 10:33:05;;;;;;;;;56.75;43.50;;;;;7.09;64.98;101640.31;6340580;22;47703;-49
2022/12/06 10:35:45;;;;;;;;;56.25;43.25;;;;;7.09;64.91;101634.22;6339983;22;45295;-48
2022/12/06 10:38:51;;;;;;;;;55.00;42.75;;;;;7.09;65.11;101642.06;6342230;22;45243;-48
2022/12/06 10:41:27;;;;;;;;;56.50;43.75;;;;;7.12;65.00;101639.50;6275680;22;45258;-48
2022/12/06 10:44:17;;;;;;;;;61.25;43.75;;;;;7.12;65.09;101645.59;6333013;22;46324;-49
2022/12/06 10:47:12;;;;;;;;;53.25;42.00;;;;;7.15;65.01;101644.75;6342119;22;45586;-47
2022/12/06 10:50:26;;;;;;;;;57.50;42.00;;;;;7.15;65.19;101640.41;6334781;22;45211;-50
2022/12/06 10:53:09;;;;;;;;;44.75;39.50;;;;;7.19;65.13;101645.69;6275498;22;46280;-50
2022/12/06 10:55:50;;;;;;;;;52.75;41.50;;;;;7.18;65.09;101639.56;6276657;22;45309;-48
2022/12/06 10:58:31;;;;;;;;;52.75;41.00;;;;;7.20;65.16;101639.59;6321973;22;45376;-51
2022/12/06 11:01:05;;;;;;;;;63.25;46.25;;;;;7.20;64.80;101643.09;6341603;22;45275;-49
2022/12/06 11:03:42;;;;;;;;;64.00;46.25;;;;;7.19;65.15;101638.72;6340119;22;45819;-47
2022/12/06 11:06:45;;;;;;;;;58.50;46.00;;;;;7.23;65.34;101632.69;6341311;22;46220;-49
2022/12/06 11:09:38;;;;;;;;;56.50;43.25;;;;;7.25;65.15;101636.19;6334515;22;45646;-48
2022/12/06 11:12:16;;;;;;;;;57.50;47.00;;;;;7.26;65.21;101629.25;6342064;22;45203;-49
2022/12/06 11:14:47;;;;;;;;;57.25;44.25;;;;;7.25;65.42;101630.09;6339817;22;45322;-53
2022/12/06 11:17:18;;;;;;;;;57.75;46.00;;;;;7.28;65.17;101624.88;6339894;22;47231;-52
2022/12/06 11:20:18;;;;;;;;;61.75;45.75;;;;;7.28;65.38;101633.63;6339577;22;45242;-48
2022/12/06 11:23:05;;;;;;;;;56.00;42.75;;;;;7.30;65.30;101629.28;6324139;22;45142;-50
2022/12/06 11:25:49;;;;;;;;;57.75;47.00;;;;;7.20;65.35;101606.50;6340200;22;45484;-48
2022/12/06 11:28:34;;;;;;;;;45.25;39.00;;;;;7.31;65.43;101624.94;6341968;22;45298;-46
2022/12/06 11:31:00;;;;;;;;;62.00;45.75;;;;;7.29;65.45;101613.56;6339577;22;45311;-47
2022/12/06 11:33:31;;;;;;;;;48.00;39.50;;;;;7.34;65.26;101617.13;6342093;22;45173;-47
2022/12/06 11:36:01;;;;;;;;;57.50;44.25;;;;;7.35;65.47;101616.28;6341021;22;45325;-52
2022/12/06 11:38:27;;;;;;;;;52.25;42.00;;;;;7.33;65.37;101604.91;6341744;22;46148;-49
2022/12/06 11:40:53;;;;;;;;;51.00;40.25;;;;;7.38;65.30;101611.06;6341395;22;45205;-51
2022/12/06 11:43:28;;;;;;;;;55.50;39.75;;;;;7.40;65.65;101609.38;6342173;22;45315;-48
2022/12/06 11:45:55;;;;;;;;;59.00;44.00;;;;;7.42;65.50;101597.19;6340909;22;45326;-46
2022/12/06 11:48:23;;;;;;;;;54.00;41.00;;;;;7.44;65.45;101605.91;6341529;22;46529;-47
2022/12/06 11:50:51;;;;;;;;;50.25;37.75;;;;;7.46;65.55;101604.22;6340688;22;45239;-50
2022/12/06 11:53:29;;;;;;;;;52.25;42.25;;;;;7.48;65.35;101589.44;6341831;22;45097;-47
2022/12/06 11:56:03;;;;;;;;;50.75;39.25;;;;;7.47;65.59;101590.28;6341719;22;45234;-49